sensor_id;sensor_type;location;lat;lon;timestamp;pressure;altitude;pressure_sealevel;temperature;humidity
63700;BME280;49845;47.130;142.766;2023-07-08T00:01:17;99697.28;;;25.72;63.57
63700;BME280;49845;47.130;142.766;2023-07-08T00:03:48;99701.03;;;25.91;64.29
63700;BME280;49845;47.130;142.766;2023-07-08T00:06:21;99704.84;;;25.98;62.42
63700;BME280;49845;47.130;142.766;2023-07-08T00:08:52;99701.19;;;25.99;62.39
63700;BME280;49845;47.130;142.766;2023-07-08T00:11:23;99697.66;;;25.98;62.88
63700;BME280;49845;47.130;142.766;2023-07-08T00:13:55;99703.91;;;26.09;62.04
63700;BME280;49845;47.130;142.766;2023-07-08T00:16:25;99702.78;;;26.11;62.06
63700;BME280;49845;47.130;142.766;2023-07-08T00:18:57;99707.00;;;26.14;61.65
63700;BME280;49845;47.130;142.766;2023-07-08T00:21:27;99708.69;;;26.24;62.56
63700;BME280;49845;47.130;142.766;2023-07-08T00:23:58;99703.06;;;26.28;60.47
63700;BME280;49845;47.130;142.766;2023-07-08T00:26:31;99709.00;;;26.31;60.94
63700;BME280;49845;47.130;142.766;2023-07-08T00:29:05;99699.56;;;26.37;61.77
63700;BME280;49845;47.130;142.766;2023-07-08T00:31:38;99699.97;;;26.42;62.13
63700;BME280;49845;47.130;142.766;2023-07-08T00:34:09;99697.44;;;26.50;62.28
63700;BME280;49845;47.130;142.766;2023-07-08T00:36:39;99696.22;;;26.54;61.48
63700;BME280;49845;47.130;142.766;2023-07-08T00:39:14;99700.28;;;26.58;60.54
63700;BME280;49845;47.130;142.766;2023-07-08T00:41:44;99693.53;;;26.64;60.08
63700;BME280;49845;47.130;142.766;2023-07-08T00:44:17;99689.84;;;26.65;61.73
63700;BME280;49845;47.130;142.766;2023-07-08T00:46:55;99696.19;;;26.74;60.61
63700;BME280;49845;47.130;142.766;2023-07-08T00:49:34;99683.34;;;26.67;60.62
63700;BME280;49845;47.130;142.766;2023-07-08T00:52:22;99697.16;;;26.92;60.94
63700;BME280;49845;47.130;142.766;2023-07-08T00:54:54;99680.47;;;26.98;61.50
63700;BME280;49845;47.130;142.766;2023-07-08T00:57:27;99688.66;;;27.06;60.71
63700;BME280;49845;47.130;142.766;2023-07-08T01:00:03;99691.75;;;27.11;60.64
63700;BME280;49845;47.130;142.766;2023-07-08T01:02:44;99682.16;;;27.19;60.01
63700;BME280;49845;47.130;142.766;2023-07-08T01:05:17;99654.78;;;26.96;60.27
63700;BME280;49845;47.130;142.766;2023-07-08T01:07:53;99696.81;;;27.15;60.08
63700;BME280;49845;47.130;142.766;2023-07-08T01:10:30;99685.78;;;27.18;60.75
63700;BME280;49845;47.130;142.766;2023-07-08T01:13:05;99684.94;;;27.27;61.38
63700;BME280;49845;47.130;142.766;2023-07-08T01:15:41;99681.28;;;27.18;61.21
63700;BME280;49845;47.130;142.766;2023-07-08T01:18:14;99680.44;;;27.27;62.09
63700;BME280;49845;47.130;142.766;2023-07-08T01:20:46;99684.88;;;27.46;61.34
63700;BME280;49845;47.130;142.766;2023-07-08T01:23:18;99687.34;;;27.58;61.34
63700;BME280;49845;47.130;142.766;2023-07-08T01:25:57;99682.59;;;27.51;60.63
63700;BME280;49845;47.130;142.766;2023-07-08T01:28:28;99638.94;;;27.22;61.83
63700;BME280;49845;47.130;142.766;2023-07-08T01:31:00;99685.06;;;27.63;61.50
63700;BME280;49845;47.130;142.766;2023-07-08T01:33:32;99674.06;;;27.66;60.21
63700;BME280;49845;47.130;142.766;2023-07-08T01:36:03;99681.41;;;27.64;60.27
63700;BME280;49845;47.130;142.766;2023-07-08T01:38:36;99682.34;;;27.72;61.43
63700;BME280;49845;47.130;142.766;2023-07-08T01:41:11;99670.84;;;27.80;60.61
63700;BME280;49845;47.130;142.766;2023-07-08T01:43:42;99672.28;;;27.84;61.07
63700;BME280;49845;47.130;142.766;2023-07-08T01:46:19;99671.09;;;27.96;62.26
63700;BME280;49845;47.130;142.766;2023-07-08T01:48:54;99675.13;;;28.01;60.90
63700;BME280;49845;47.130;142.766;2023-07-08T01:51:27;99669.09;;;27.99;60.04
63700;BME280;49845;47.130;142.766;2023-07-08T01:53:59;99665.97;;;28.03;60.73
63700;BME280;49845;47.130;142.766;2023-07-08T01:56:30;99662.78;;;28.08;60.63
63700;BME280;49845;47.130;142.766;2023-07-08T01:59:00;99664.94;;;28.22;61.12
63700;BME280;49845;47.130;142.766;2023-07-08T02:01:31;99667.44;;;28.33;60.03
63700;BME280;49845;47.130;142.766;2023-07-08T02:04:01;99663.72;;;28.34;60.22
63700;BME280;49845;47.130;142.766;2023-07-08T02:06:32;99659.19;;;28.35;59.62
63700;BME280;49845;47.130;142.766;2023-07-08T02:09:04;99648.91;;;28.30;60.31
63700;BME280;49845;47.130;142.766;2023-07-08T02:11:35;99654.66;;;28.35;60.53
63700;BME280;49845;47.130;142.766;2023-07-08T02:14:06;99649.78;;;28.49;59.51
63700;BME280;49845;47.130;142.766;2023-07-08T02:16:37;99655.47;;;28.46;59.18
63700;BME280;49845;47.130;142.766;2023-07-08T02:19:08;99658.41;;;28.43;60.68
63700;BME280;49845;47.130;142.766;2023-07-08T02:21:42;99651.97;;;28.35;59.70
63700;BME280;49845;47.130;142.766;2023-07-08T02:24:14;99655.72;;;28.43;58.15
63700;BME280;49845;47.130;142.766;2023-07-08T02:26:45;99654.22;;;28.22;56.92
63700;BME280;49845;47.130;142.766;2023-07-08T02:29:17;99643.31;;;28.06;57.68
63700;BME280;49845;47.130;142.766;2023-07-08T02:31:47;99647.16;;;28.21;57.64
63700;BME280;49845;47.130;142.766;2023-07-08T02:34:18;99644.84;;;28.26;56.40
63700;BME280;49845;47.130;142.766;2023-07-08T02:36:49;99630.28;;;28.11;55.98
63700;BME280;49845;47.130;142.766;2023-07-08T02:39:21;99609.78;;;28.10;56.70
63700;BME280;49845;47.130;142.766;2023-07-08T02:41:52;99641.91;;;28.37;56.12
63700;BME280;49845;47.130;142.766;2023-07-08T02:44:23;99644.84;;;28.26;56.60
63700;BME280;49845;47.130;142.766;2023-07-08T02:46:54;99643.84;;;28.27;54.93
63700;BME280;49845;47.130;142.766;2023-07-08T02:49:25;99646.00;;;28.24;55.75
63700;BME280;49845;47.130;142.766;2023-07-08T02:51:56;99640.25;;;28.36;55.95
63700;BME280;49845;47.130;142.766;2023-07-08T02:54:28;99642.03;;;28.46;56.18
63700;BME280;49845;47.130;142.766;2023-07-08T02:56:59;99633.03;;;28.55;56.40
63700;BME280;49845;47.130;142.766;2023-07-08T02:59:30;99631.25;;;28.64;55.02
63700;BME280;49845;47.130;142.766;2023-07-08T03:02:00;99636.31;;;28.67;54.92
63700;BME280;49845;47.130;142.766;2023-07-08T03:04:31;99624.59;;;28.50;54.39
63700;BME280;49845;47.130;142.766;2023-07-08T03:07:01;99620.97;;;28.41;53.79
63700;BME280;49845;47.130;142.766;2023-07-08T03:09:34;99627.03;;;28.25;53.86
63700;BME280;49845;47.130;142.766;2023-07-08T03:12:05;99629.34;;;28.20;54.17
63700;BME280;49845;47.130;142.766;2023-07-08T03:14:36;99626.50;;;28.22;53.19
63700;BME280;49845;47.130;142.766;2023-07-08T03:17:06;99613.69;;;28.33;54.88
63700;BME280;49845;47.130;142.766;2023-07-08T03:19:37;99607.84;;;28.56;54.90
63700;BME280;49845;47.130;142.766;2023-07-08T03:22:08;99611.53;;;28.55;52.40
63700;BME280;49845;47.130;142.766;2023-07-08T03:24:40;99595.13;;;27.86;54.86
63700;BME280;49845;47.130;142.766;2023-07-08T03:27:14;99604.56;;;28.08;54.93
63700;BME280;49845;47.130;142.766;2023-07-08T03:29:45;99601.03;;;28.26;55.72
63700;BME280;49845;47.130;142.766;2023-07-08T03:32:16;99595.25;;;28.38;53.24
63700;BME280;49845;47.130;142.766;2023-07-08T03:34:46;99589.50;;;28.15;54.44
63700;BME280;49845;47.130;142.766;2023-07-08T03:37:17;99590.16;;;28.35;55.61
63700;BME280;49845;47.130;142.766;2023-07-08T03:39:49;99595.72;;;28.52;55.04
63700;BME280;49845;47.130;142.766;2023-07-08T03:42:19;99595.88;;;28.32;52.99
63700;BME280;49845;47.130;142.766;2023-07-08T03:44:50;99592.44;;;28.04;53.07
63700;BME280;49845;47.130;142.766;2023-07-08T03:47:20;99586.81;;;27.98;53.36
63700;BME280;49845;47.130;142.766;2023-07-08T03:49:52;99586.94;;;27.78;52.09
63700;BME280;49845;47.130;142.766;2023-07-08T03:52:23;99583.88;;;27.73;55.00
63700;BME280;49845;47.130;142.766;2023-07-08T03:54:55;99590.22;;;28.00;53.92
63700;BME280;49845;47.130;142.766;2023-07-08T03:57:26;99579.00;;;28.22;53.80
63700;BME280;49845;47.130;142.766;2023-07-08T03:59:56;99573.69;;;28.48;54.46
63700;BME280;49845;47.130;142.766;2023-07-08T04:02:27;99569.25;;;28.65;53.39
63700;BME280;49845;47.130;142.766;2023-07-08T04:04:58;99574.38;;;28.76;51.53
63700;BME280;49845;47.130;142.766;2023-07-08T04:07:30;99572.31;;;28.70;51.84
63700;BME280;49845;47.130;142.766;2023-07-08T04:10:03;99576.13;;;28.59;51.41
63700;BME280;49845;47.130;142.766;2023-07-08T04:12:35;99569.00;;;28.32;52.01
63700;BME280;49845;47.130;142.766;2023-07-08T04:15:08;99533.28;;;28.14;51.84
63700;BME280;49845;47.130;142.766;2023-07-08T04:17:43;99561.63;;;28.34;51.51
63700;BME280;49845;47.130;142.766;2023-07-08T04:20:17;99553.06;;;28.13;51.36
63700;BME280;49845;47.130;142.766;2023-07-08T04:22:49;99549.38;;;28.14;52.88
63700;BME280;49845;47.130;142.766;2023-07-08T04:25:23;99540.59;;;28.48;54.30
63700;BME280;49845;47.130;142.766;2023-07-08T04:27:56;99537.09;;;28.81;53.69
63700;BME280;49845;47.130;142.766;2023-07-08T04:30:28;99532.81;;;29.05;54.09
63700;BME280;49845;47.130;142.766;2023-07-08T04:33:01;99531.56;;;29.17;53.56
63700;BME280;49845;47.130;142.766;2023-07-08T04:35:32;99522.16;;;29.21;53.14
63700;BME280;49845;47.130;142.766;2023-07-08T04:38:03;99528.75;;;29.35;53.09
63700;BME280;49845;47.130;142.766;2023-07-08T04:40:40;99526.25;;;29.50;52.64
63700;BME280;49845;47.130;142.766;2023-07-08T04:43:12;99528.66;;;29.61;52.20
63700;BME280;49845;47.130;142.766;2023-07-08T04:45:46;99528.88;;;29.68;50.57
63700;BME280;49845;47.130;142.766;2023-07-08T04:48:20;99499.72;;;29.63;51.39
63700;BME280;49845;47.130;142.766;2023-07-08T04:50:54;99467.41;;;29.47;50.35
63700;BME280;49845;47.130;142.766;2023-07-08T04:53:27;99528.88;;;29.84;48.21
63700;BME280;49845;47.130;142.766;2023-07-08T04:56:00;99527.69;;;29.87;48.54
63700;BME280;49845;47.130;142.766;2023-07-08T04:58:32;99527.03;;;29.93;48.28
63700;BME280;49845;47.130;142.766;2023-07-08T05:01:04;99521.66;;;30.01;49.37
63700;BME280;49845;47.130;142.766;2023-07-08T05:03:35;99524.69;;;29.98;47.49
63700;BME280;49845;47.130;142.766;2023-07-08T05:06:07;99528.81;;;29.52;47.78
63700;BME280;49845;47.130;142.766;2023-07-08T05:08:39;99526.53;;;29.22;48.88
63700;BME280;49845;47.130;142.766;2023-07-08T05:11:13;99518.53;;;29.39;50.52
63700;BME280;49845;47.130;142.766;2023-07-08T05:13:48;99501.97;;;29.68;50.06
63700;BME280;49845;47.130;142.766;2023-07-08T05:16:21;99516.94;;;30.03;49.90
63700;BME280;49845;47.130;142.766;2023-07-08T05:18:55;99519.66;;;30.28;49.70
63700;BME280;49845;47.130;142.766;2023-07-08T05:21:30;99521.66;;;30.34;48.70
63700;BME280;49845;47.130;142.766;2023-07-08T05:24:07;99518.97;;;30.34;48.87
63700;BME280;49845;47.130;142.766;2023-07-08T05:26:44;99514.22;;;30.44;49.47
63700;BME280;49845;47.130;142.766;2023-07-08T05:29:18;99517.59;;;30.46;48.80
63700;BME280;49845;47.130;142.766;2023-07-08T05:31:51;99505.13;;;30.45;49.11
63700;BME280;49845;47.130;142.766;2023-07-08T05:34:24;99498.88;;;30.53;49.57
63700;BME280;49845;47.130;142.766;2023-07-08T05:36:56;99502.09;;;30.40;47.18
63700;BME280;49845;47.130;142.766;2023-07-08T05:39:27;99506.81;;;30.30;48.15
63700;BME280;49845;47.130;142.766;2023-07-08T05:42:03;99506.00;;;30.13;49.68
63700;BME280;49845;47.130;142.766;2023-07-08T05:44:38;99497.91;;;30.05;49.38
63700;BME280;49845;47.130;142.766;2023-07-08T05:47:12;99490.66;;;30.14;49.10
63700;BME280;49845;47.130;142.766;2023-07-08T05:49:45;99492.69;;;30.12;48.57
63700;BME280;49845;47.130;142.766;2023-07-08T05:52:17;99485.94;;;30.07;48.50
63700;BME280;49845;47.130;142.766;2023-07-08T05:54:52;99485.94;;;30.24;49.57
63700;BME280;49845;47.130;142.766;2023-07-08T05:57:26;99481.38;;;30.41;50.02
63700;BME280;49845;47.130;142.766;2023-07-08T05:59:59;99489.09;;;30.52;49.20
63700;BME280;49845;47.130;142.766;2023-07-08T06:02:32;99482.50;;;30.55;48.51
63700;BME280;49845;47.130;142.766;2023-07-08T06:05:04;99485.19;;;30.63;47.63
63700;BME280;49845;47.130;142.766;2023-07-08T06:07:36;99483.16;;;30.65;48.38
63700;BME280;49845;47.130;142.766;2023-07-08T06:10:26;99484.34;;;30.62;47.26
63700;BME280;49845;47.130;142.766;2023-07-08T06:13:01;99476.53;;;30.12;47.37
63700;BME280;49845;47.130;142.766;2023-07-08T06:15:31;99479.88;;;29.97;48.54
63700;BME280;49845;47.130;142.766;2023-07-08T06:18:02;99475.84;;;30.01;49.38
63700;BME280;49845;47.130;142.766;2023-07-08T06:20:33;99471.47;;;30.25;49.77
63700;BME280;49845;47.130;142.766;2023-07-08T06:23:04;99478.50;;;30.42;49.47
63700;BME280;49845;47.130;142.766;2023-07-08T06:25:35;99480.25;;;30.10;47.83
63700;BME280;49845;47.130;142.766;2023-07-08T06:28:07;99471.13;;;29.95;48.74
63700;BME280;49845;47.130;142.766;2023-07-08T06:30:37;99463.06;;;29.87;50.04
63700;BME280;49845;47.130;142.766;2023-07-08T06:33:08;99475.16;;;30.07;50.21
63700;BME280;49845;47.130;142.766;2023-07-08T06:35:41;99466.09;;;29.92;48.44
63700;BME280;49845;47.130;142.766;2023-07-08T06:38:12;99470.81;;;29.98;49.80
63700;BME280;49845;47.130;142.766;2023-07-08T06:40:43;99470.81;;;29.98;48.88
63700;BME280;49845;47.130;142.766;2023-07-08T06:43:15;99476.53;;;30.12;49.85
63700;BME280;49845;47.130;142.766;2023-07-08T06:45:46;99474.16;;;30.25;49.24
63700;BME280;49845;47.130;142.766;2023-07-08T06:48:16;99483.25;;;30.32;49.59
63700;BME280;49845;47.130;142.766;2023-07-08T06:50:47;99477.84;;;30.32;48.55
63700;BME280;49845;47.130;142.766;2023-07-08T06:53:18;99473.84;;;30.28;49.14
63700;BME280;49845;47.130;142.766;2023-07-08T06:55:49;99464.72;;;30.21;49.13
63700;BME280;49845;47.130;142.766;2023-07-08T06:58:22;99469.44;;;30.27;49.21
63700;BME280;49845;47.130;142.766;2023-07-08T07:00:52;99469.09;;;30.30;49.03
63700;BME280;49845;47.130;142.766;2023-07-08T07:03:24;99466.59;;;30.28;48.73
63700;BME280;49845;47.130;142.766;2023-07-08T07:05:54;99473.66;;;30.21;48.16
63700;BME280;49845;47.130;142.766;2023-07-08T07:08:25;99462.69;;;30.23;48.29
63700;BME280;49845;47.130;142.766;2023-07-08T07:10:56;99463.72;;;30.30;48.12
63700;BME280;49845;47.130;142.766;2023-07-08T07:13:28;99456.31;;;30.07;47.82
63700;BME280;49845;47.130;142.766;2023-07-08T07:15:59;99455.63;;;30.14;49.88
63700;BME280;49845;47.130;142.766;2023-07-08T07:18:30;99450.41;;;30.12;47.96
63700;BME280;49845;47.130;142.766;2023-07-08T07:21:01;99461.88;;;29.89;47.73
63700;BME280;49845;47.130;142.766;2023-07-08T07:23:34;99463.56;;;29.82;48.82
63700;BME280;49845;47.130;142.766;2023-07-08T07:26:05;99458.34;;;29.97;49.95
63700;BME280;49845;47.130;142.766;2023-07-08T07:28:37;99447.91;;;30.02;50.05
63700;BME280;49845;47.130;142.766;2023-07-08T07:31:08;99450.94;;;30.16;50.12
63700;BME280;49845;47.130;142.766;2023-07-08T07:33:41;99445.84;;;30.13;48.97
63700;BME280;49845;47.130;142.766;2023-07-08T07:36:12;99452.13;;;30.13;49.26
63700;BME280;49845;47.130;142.766;2023-07-08T07:38:42;99453.97;;;30.04;48.83
63700;BME280;49845;47.130;142.766;2023-07-08T07:41:13;99456.63;;;30.13;49.21
63700;BME280;49845;47.130;142.766;2023-07-08T07:43:46;99459.34;;;30.21;49.65
63700;BME280;49845;47.130;142.766;2023-07-08T07:46:16;99465.75;;;30.28;49.73
63700;BME280;49845;47.130;142.766;2023-07-08T07:48:47;99453.75;;;30.22;49.46
63700;BME280;49845;47.130;142.766;2023-07-08T07:51:17;99456.31;;;30.16;49.19
63700;BME280;49845;47.130;142.766;2023-07-08T07:53:48;99459.00;;;30.07;49.61
63700;BME280;49845;47.130;142.766;2023-07-08T07:56:19;99456.81;;;30.03;49.39
63700;BME280;49845;47.130;142.766;2023-07-08T07:58:54;99468.47;;;30.03;50.01
63700;BME280;49845;47.130;142.766;2023-07-08T08:01:24;99461.03;;;29.97;48.52
63700;BME280;49845;47.130;142.766;2023-07-08T08:03:55;99466.78;;;29.94;48.98
63700;BME280;49845;47.130;142.766;2023-07-08T08:06:26;99461.06;;;29.89;48.81
63700;BME280;49845;47.130;142.766;2023-07-08T08:08:57;99465.25;;;29.92;49.85
63700;BME280;49845;47.130;142.766;2023-07-08T08:11:27;99468.09;;;29.90;49.12
63700;BME280;49845;47.130;142.766;2023-07-08T08:14:00;99463.91;;;29.87;50.35
63700;BME280;49845;47.130;142.766;2023-07-08T08:16:32;99472.50;;;29.91;51.14
63700;BME280;49845;47.130;142.766;2023-07-08T08:19:03;99466.25;;;29.82;49.78
63700;BME280;49845;47.130;142.766;2023-07-08T08:21:36;99457.69;;;29.71;51.02
63700;BME280;49845;47.130;142.766;2023-07-08T08:24:06;99471.50;;;29.76;50.94
63700;BME280;49845;47.130;142.766;2023-07-08T08:26:37;99473.13;;;29.60;50.13
63700;BME280;49845;47.130;142.766;2023-07-08T08:29:09;99477.50;;;29.53;50.51
63700;BME280;49845;47.130;142.766;2023-07-08T08:31:40;99468.41;;;29.46;51.04
63700;BME280;49845;47.130;142.766;2023-07-08T08:34:10;99470.09;;;29.39;51.11
63700;BME280;49845;47.130;142.766;2023-07-08T08:36:41;99472.44;;;29.42;52.03
63700;BME280;49845;47.130;142.766;2023-07-08T08:39:13;99469.09;;;29.48;52.87
63700;BME280;49845;47.130;142.766;2023-07-08T08:41:45;99474.28;;;29.41;52.19
63700;BME280;49845;47.130;142.766;2023-07-08T08:44:22;99472.44;;;29.34;51.88
63700;BME280;49845;47.130;142.766;2023-07-08T08:46:58;99481.00;;;29.29;52.21
63700;BME280;49845;47.130;142.766;2023-07-08T08:49:39;99397.78;;;28.85;52.98
63700;BME280;49845;47.130;142.766;2023-07-08T08:52:12;99470.88;;;29.23;53.21
63700;BME280;49845;47.130;142.766;2023-07-08T08:54:44;99463.97;;;29.12;52.77
63700;BME280;49845;47.130;142.766;2023-07-08T08:57:35;99469.00;;;29.15;53.78
63700;BME280;49845;47.130;142.766;2023-07-08T09:00:25;99465.31;;;29.16;54.05
63700;BME280;49845;47.130;142.766;2023-07-08T09:03:17;99470.72;;;29.16;53.63
63700;BME280;49845;47.130;142.766;2023-07-08T09:05:51;99452.28;;;28.95;53.05
63700;BME280;49845;47.130;142.766;2023-07-08T09:11:39;99485.53;;;28.86;53.79
63700;BME280;49845;47.130;142.766;2023-07-08T09:14:18;99464.16;;;28.76;53.99
63700;BME280;49845;47.130;142.766;2023-07-08T09:17:04;99445.25;;;28.60;54.39
63700;BME280;49845;47.130;142.766;2023-07-08T09:19:44;99477.94;;;28.73;54.36
63700;BME280;49845;47.130;142.766;2023-07-08T09:22:21;99476.91;;;28.74;55.13
63700;BME280;49845;47.130;142.766;2023-07-08T09:25:01;99475.88;;;28.75;55.68
63700;BME280;49845;47.130;142.766;2023-07-08T09:27:34;99470.47;;;28.67;56.23
63700;BME280;49845;47.130;142.766;2023-07-08T09:30:09;99483.31;;;28.81;56.51
63700;BME280;49845;47.130;142.766;2023-07-08T09:32:46;99476.56;;;28.77;56.54
63700;BME280;49845;47.130;142.766;2023-07-08T09:35:22;99477.56;;;28.68;56.40
63700;BME280;49845;47.130;142.766;2023-07-08T09:37:55;99483.25;;;28.65;56.15
63700;BME280;49845;47.130;142.766;2023-07-08T09:40:38;99478.31;;;28.52;56.47
63700;BME280;49845;47.130;142.766;2023-07-08T09:43:19;99476.72;;;28.42;55.72
63700;BME280;49845;47.130;142.766;2023-07-08T09:45:57;99468.50;;;28.17;55.85
63700;BME280;49845;47.130;142.766;2023-07-08T09:48:35;99475.13;;;28.05;56.81
63700;BME280;49845;47.130;142.766;2023-07-08T09:51:06;99481.22;;;27.89;57.35
63700;BME280;49845;47.130;142.766;2023-07-08T09:53:38;99472.09;;;27.64;57.85
63700;BME280;49845;47.130;142.766;2023-07-08T09:56:10;99476.97;;;27.50;59.03
63700;BME280;49845;47.130;142.766;2023-07-08T09:58:42;99483.66;;;27.28;60.35
63700;BME280;49845;47.130;142.766;2023-07-08T10:01:23;99481.81;;;27.01;60.94
63700;BME280;49845;47.130;142.766;2023-07-08T10:04:01;99428.88;;;26.38;62.14
63700;BME280;49845;47.130;142.766;2023-07-08T10:06:34;99506.81;;;26.55;63.08
63700;BME280;49845;47.130;142.766;2023-07-08T10:09:11;99498.00;;;26.15;64.46
63700;BME280;49845;47.130;142.766;2023-07-08T10:11:51;99511.81;;;25.81;65.84
63700;BME280;49845;47.130;142.766;2023-07-08T10:14:27;99487.69;;;25.33;67.48
63700;BME280;49845;47.130;142.766;2023-07-08T10:17:00;99507.22;;;25.14;69.20
63700;BME280;49845;47.130;142.766;2023-07-08T10:19:34;99503.03;;;24.90;70.42
63700;BME280;49845;47.130;142.766;2023-07-08T10:22:17;99507.75;;;24.67;71.67
63700;BME280;49845;47.130;142.766;2023-07-08T10:25:02;99500.97;;;24.42;73.02
63700;BME280;49845;47.130;142.766;2023-07-08T10:27:44;99523.28;;;24.31;73.99
63700;BME280;49845;47.130;142.766;2023-07-08T10:30:21;99507.41;;;24.19;74.50
63700;BME280;49845;47.130;142.766;2023-07-08T10:33:13;99506.50;;;24.08;74.84
63700;BME280;49845;47.130;142.766;2023-07-08T10:36:15;99510.78;;;23.79;76.44
63700;BME280;49845;47.130;142.766;2023-07-08T10:39:05;99505.84;;;23.63;77.23
63700;BME280;49845;47.130;142.766;2023-07-08T10:41:49;99517.22;;;23.44;78.07
63700;BME280;49845;47.130;142.766;2023-07-08T10:44:28;99484.81;;;23.05;79.20
63700;BME280;49845;47.130;142.766;2023-07-08T10:47:24;99522.81;;;23.18;79.79
63700;BME280;49845;47.130;142.766;2023-07-08T10:50:17;99521.88;;;23.08;80.20
63700;BME280;49845;47.130;142.766;2023-07-08T10:52:59;99522.22;;;22.92;80.98
63700;BME280;49845;47.130;142.766;2023-07-08T10:55:40;99517.03;;;22.79;81.24
63700;BME280;49845;47.130;142.766;2023-07-08T10:58:28;99525.47;;;22.73;81.38
63700;BME280;49845;47.130;142.766;2023-07-08T11:01:11;99535.88;;;22.65;81.65
63700;BME280;49845;47.130;142.766;2023-07-08T11:04:12;99526.91;;;22.44;82.19
63700;BME280;49845;47.130;142.766;2023-07-08T11:06:53;99457.84;;;21.84;82.60
63700;BME280;49845;47.130;142.766;2023-07-08T11:09:32;99548.19;;;22.32;83.39
63700;BME280;49845;47.130;142.766;2023-07-08T11:12:14;99539.22;;;22.22;83.85
63700;BME280;49845;47.130;142.766;2023-07-08T11:14:51;99519.53;;;22.01;84.46
63700;BME280;49845;47.130;142.766;2023-07-08T11:17:32;99527.47;;;21.89;85.26
63700;BME280;49845;47.130;142.766;2023-07-08T11:20:13;99545.13;;;21.90;85.78
63700;BME280;49845;47.130;142.766;2023-07-08T11:22:51;99545.63;;;21.71;86.15
63700;BME280;49845;47.130;142.766;2023-07-08T11:25:27;99549.72;;;21.64;86.77
63700;BME280;49845;47.130;142.766;2023-07-08T11:28:03;99555.06;;;21.51;87.48
63700;BME280;49845;47.130;142.766;2023-07-08T11:30:36;99552.13;;;21.43;88.16
63700;BME280;49845;47.130;142.766;2023-07-08T11:33:12;99560.94;;;21.31;88.59
63700;BME280;49845;47.130;142.766;2023-07-08T11:35:47;99560.66;;;21.23;89.17
63700;BME280;49845;47.130;142.766;2023-07-08T11:38:21;99561.09;;;21.17;89.82
63700;BME280;49845;47.130;142.766;2023-07-08T11:40:56;99562.59;;;21.08;89.93
63700;BME280;49845;47.130;142.766;2023-07-08T11:43:34;99560.50;;;21.00;90.54
63700;BME280;49845;47.130;142.766;2023-07-08T11:46:14;99539.06;;;20.78;90.52
63700;BME280;49845;47.130;142.766;2023-07-08T11:48:47;99566.66;;;20.88;91.14
63700;BME280;49845;47.130;142.766;2023-07-08T11:51:22;99565.41;;;20.81;91.62
63700;BME280;49845;47.130;142.766;2023-07-08T11:54:01;99479.59;;;20.16;91.83
63700;BME280;49845;47.130;142.766;2023-07-08T11:56:50;99560.53;;;20.75;92.47
63700;BME280;49845;47.130;142.766;2023-07-08T11:59:31;99483.31;;;20.26;92.75
63700;BME280;49845;47.130;142.766;2023-07-08T12:02:10;99552.97;;;20.68;92.59
63700;BME280;49845;47.130;142.766;2023-07-08T12:04:56;99551.16;;;20.56;93.16
63700;BME280;49845;47.130;142.766;2023-07-08T12:07:32;99558.47;;;20.40;93.81
63700;BME280;49845;47.130;142.766;2023-07-08T12:10:08;99544.97;;;20.17;94.74
63700;BME280;49845;47.130;142.766;2023-07-08T12:12:45;99538.97;;;20.01;95.35
63700;BME280;49845;47.130;142.766;2023-07-08T12:15:22;99563.94;;;20.11;95.66
63700;BME280;49845;47.130;142.766;2023-07-08T12:17:56;99564.34;;;20.05;96.09
63700;BME280;49845;47.130;142.766;2023-07-08T12:20:33;99556.25;;;19.94;96.56
63700;BME280;49845;47.130;142.766;2023-07-08T12:23:11;99571.00;;;19.98;96.71
63700;BME280;49845;47.130;142.766;2023-07-08T12:25:43;99573.00;;;19.94;97.51
63700;BME280;49845;47.130;142.766;2023-07-08T12:28:17;99566.09;;;19.92;97.48
63700;BME280;49845;47.130;142.766;2023-07-08T12:30:50;99568.97;;;19.89;97.67
63700;BME280;49845;47.130;142.766;2023-07-08T12:33:27;99469.91;;;19.23;98.01
63700;BME280;49845;47.130;142.766;2023-07-08T12:36:01;99555.47;;;19.79;98.04
63700;BME280;49845;47.130;142.766;2023-07-08T12:38:37;99475.50;;;19.18;97.94
63700;BME280;49845;47.130;142.766;2023-07-08T12:41:10;99574.72;;;19.68;98.40
63700;BME280;49845;47.130;142.766;2023-07-08T12:43:45;99573.31;;;19.63;98.93
63700;BME280;49845;47.130;142.766;2023-07-08T12:46:18;99556.00;;;19.57;98.83
63700;BME280;49845;47.130;142.766;2023-07-08T12:48:51;99585.50;;;19.65;98.53
63700;BME280;49845;47.130;142.766;2023-07-08T12:51:25;99583.06;;;19.62;98.72
63700;BME280;49845;47.130;142.766;2023-07-08T12:53:57;99577.00;;;19.60;98.76
63700;BME280;49845;47.130;142.766;2023-07-08T12:56:30;99583.34;;;19.57;99.02
63700;BME280;49845;47.130;142.766;2023-07-08T12:59:04;99585.88;;;19.59;99.16
63700;BME280;49845;47.130;142.766;2023-07-08T13:01:37;99587.81;;;19.57;99.18
63700;BME280;49845;47.130;142.766;2023-07-08T13:04:11;99582.25;;;19.47;98.64
63700;BME280;49845;47.130;142.766;2023-07-08T13:06:44;99568.75;;;19.23;98.09
63700;BME280;49845;47.130;142.766;2023-07-08T13:09:35;99564.22;;;19.11;98.18
63700;BME280;49845;47.130;142.766;2023-07-08T13:12:14;99599.00;;;19.19;98.76
63700;BME280;49845;47.130;142.766;2023-07-08T13:14:49;99613.78;;;19.09;99.08
63700;BME280;49845;47.130;142.766;2023-07-08T13:17:23;99609.06;;;19.00;99.10
63700;BME280;49845;47.130;142.766;2023-07-08T13:19:57;99609.69;;;18.89;99.41